createdAt,value
2018-10-19T00:00:11.174Z,14.13
2018-10-19T00:02:39.238Z,14.57
2018-10-19T00:05:07.386Z,13.93
2018-10-19T00:07:35.425Z,14.87
2018-10-19T00:10:03.634Z,13.57
2018-10-19T00:12:31.654Z,15.57
2018-10-19T00:14:59.705Z,14.33
2018-10-19T00:17:27.757Z,14.33
2018-10-19T00:19:55.809Z,14.43
2018-10-19T00:22:23.861Z,15.43
2018-10-19T00:24:51.903Z,14.33
2018-10-19T00:27:19.937Z,15.17
2018-10-19T00:29:47.962Z,14.33
2018-10-19T00:32:16.016Z,13.97
2018-10-19T00:34:44.041Z,14.27
2018-10-19T00:37:12.070Z,16.00
2018-10-19T00:39:40.117Z,15.10
2018-10-19T00:42:08.153Z,13.07
2018-10-19T00:44:36.208Z,15.23
2018-10-19T00:47:04.522Z,16.17
2018-10-19T00:49:32.510Z,15.13
2018-10-19T00:52:00.549Z,15.50
2018-10-19T00:54:28.602Z,16.50
2018-10-19T00:56:56.694Z,16.27
2018-10-19T00:59:24.678Z,15.13
2018-10-19T01:01:52.697Z,15.87
2018-10-19T01:04:20.769Z,15.47
2018-10-19T01:06:48.819Z,15.27
2018-10-19T01:09:16.877Z,14.83
2018-10-19T01:11:44.923Z,14.33
2018-10-19T01:14:12.986Z,14.40
2018-10-19T01:16:41.037Z,14.27
2018-10-19T01:19:09.077Z,14.13
2018-10-19T01:21:37.149Z,13.17
2018-10-19T01:24:05.247Z,13.43
2018-10-19T01:26:33.289Z,14.23
2018-10-19T01:29:01.366Z,15.10
2018-10-19T01:31:29.371Z,14.57
2018-10-19T01:33:57.422Z,13.97
2018-10-19T01:36:26.471Z,15.00
2018-10-19T01:38:54.594Z,15.27
2018-10-19T01:41:22.592Z,14.43
2018-10-19T01:43:50.673Z,14.27
2018-10-19T01:46:18.721Z,15.37
2018-10-19T01:48:46.766Z,16.00
2018-10-19T01:51:14.859Z,15.70
2018-10-19T01:53:43.389Z,15.93
2018-10-19T01:56:11.446Z,15.40
2018-10-19T01:58:39.481Z,16.50
2018-10-19T02:01:07.525Z,15.43
2018-10-19T02:03:35.580Z,15.10
2018-10-19T02:06:03.624Z,14.97
2018-10-19T02:08:31.702Z,17.47
2018-10-19T02:10:59.791Z,15.67
2018-10-19T02:13:27.796Z,17.50
2018-10-19T02:15:55.852Z,15.77
2018-10-19T02:18:23.949Z,16.07
2018-10-19T02:20:52.056Z,16.43
2018-10-19T02:23:20.019Z,16.60
2018-10-19T02:25:48.091Z,16.40
2018-10-19T02:28:16.146Z,16.43
2018-10-19T02:30:44.208Z,16.40
2018-10-19T02:33:12.699Z,13.03
2018-10-19T02:35:40.704Z,18.53
2018-10-19T02:38:08.744Z,19.03
2018-10-19T02:40:36.812Z,19.07
2018-10-19T02:43:05.266Z,18.13
2018-10-19T02:45:33.335Z,18.67
2018-10-19T02:48:01.839Z,17.37
2018-10-19T02:50:29.900Z,19.43
2018-10-19T02:52:58.027Z,18.57
2018-10-19T02:55:26.015Z,18.97
2018-10-19T02:57:54.048Z,18.37
2018-10-19T03:00:22.129Z,17.93
2018-10-19T03:02:50.178Z,18.60
2018-10-19T03:05:18.310Z,18.03
2018-10-19T03:07:49.961Z,19.13
2018-10-19T03:10:18.029Z,18.97
2018-10-19T03:12:46.112Z,19.10
2018-10-19T03:15:14.210Z,18.93
2018-10-19T03:17:42.234Z,19.67
2018-10-19T03:20:10.308Z,19.53
2018-10-19T03:22:38.336Z,19.47
2018-10-19T03:25:06.456Z,20.20
2018-10-19T03:27:34.546Z,19.93
2018-10-19T03:30:02.638Z,20.47
2018-10-19T03:32:30.670Z,20.73
2018-10-19T03:34:58.819Z,20.27
2018-10-19T03:37:26.853Z,18.90
2018-10-19T03:39:54.898Z,19.43
2018-10-19T03:42:22.990Z,19.07
2018-10-19T03:44:51.029Z,17.97
2018-10-19T03:47:19.241Z,19.27
2018-10-19T03:49:47.139Z,19.87
2018-10-19T03:52:15.197Z,18.70
2018-10-19T03:54:43.237Z,18.53
2018-10-19T03:57:11.372Z,17.90
2018-10-19T03:59:39.322Z,19.03
2018-10-19T04:02:07.400Z,19.93
2018-10-19T04:04:35.568Z,19.43
2018-10-19T04:07:03.707Z,18.33
2018-10-19T04:09:31.764Z,18.80
2018-10-19T04:11:59.821Z,18.93
2018-10-19T04:14:27.893Z,19.70
2018-10-19T04:16:56.068Z,18.30
2018-10-19T04:19:24.259Z,19.07
2018-10-19T04:21:52.534Z,19.90
2018-10-19T04:24:20.584Z,20.30
2018-10-19T04:26:48.645Z,19.23
2018-10-19T04:29:16.759Z,20.37
2018-10-19T04:31:44.909Z,19.03
2018-10-19T04:34:13.007Z,19.00
2018-10-19T04:36:41.048Z,19.60
2018-10-19T04:39:09.180Z,20.10
2018-10-19T04:41:38.196Z,18.13
2018-10-19T04:44:06.184Z,19.27
2018-10-19T04:46:34.218Z,18.07
2018-10-19T04:49:02.413Z,16.80
2018-10-19T04:51:30.457Z,17.43
2018-10-19T04:53:58.520Z,17.80
2018-10-19T04:56:26.549Z,18.20
2018-10-19T04:58:54.613Z,17.80
2018-10-19T05:01:22.712Z,16.27
2018-10-19T05:03:50.807Z,15.73
2018-10-19T05:06:18.873Z,17.83
2018-10-19T05:08:46.944Z,17.80
2018-10-19T05:11:14.993Z,18.80
2018-10-19T05:13:43.083Z,19.03
2018-10-19T05:16:11.203Z,18.13
2018-10-19T05:18:39.480Z,18.50
2018-10-19T05:21:07.573Z,18.80
2018-10-19T05:23:35.658Z,18.73
2018-10-19T05:26:04.223Z,19.40
2018-10-19T05:28:32.223Z,19.10
2018-10-19T05:31:00.417Z,20.33
2018-10-19T05:33:28.465Z,21.40
2018-10-19T05:35:56.522Z,20.93
2018-10-19T05:38:24.574Z,20.70
2018-10-19T05:40:52.647Z,20.23
2018-10-19T05:43:20.698Z,20.30
2018-10-19T05:45:48.740Z,20.30
2018-10-19T05:48:16.768Z,21.40
2018-10-19T05:50:44.892Z,21.47
2018-10-19T05:53:13.049Z,21.03
2018-10-19T05:55:41.224Z,20.33
2018-10-19T05:58:09.418Z,21.57
2018-10-19T06:00:37.750Z,20.77
2018-10-19T06:03:05.852Z,21.93
2018-10-19T06:05:33.881Z,21.77
2018-10-19T06:08:02.031Z,21.73
2018-10-19T06:10:30.033Z,22.33
2018-10-19T06:12:58.057Z,21.97
2018-10-19T06:15:26.107Z,21.57
2018-10-19T06:17:54.158Z,19.37
2018-10-19T06:20:22.198Z,20.17
2018-10-19T06:22:50.258Z,18.73
2018-10-19T06:25:20.296Z,15.67
2018-10-19T06:27:50.687Z,18.07
2018-10-19T06:30:18.754Z,18.03
2018-10-19T06:32:46.843Z,21.63
2018-10-19T06:35:15.148Z,22.37
2018-10-19T06:37:43.136Z,22.90
2018-10-19T06:40:11.190Z,22.57
2018-10-19T06:42:39.230Z,22.13
2018-10-19T06:45:07.395Z,23.93
2018-10-19T06:47:35.458Z,23.70
2018-10-19T06:50:05.316Z,22.87
2018-10-19T06:52:33.326Z,25.57
2018-10-19T06:55:01.383Z,26.73
2018-10-19T06:57:29.444Z,25.53
2018-10-19T06:59:57.472Z,22.53
2018-10-19T07:02:25.547Z,24.73
2018-10-19T07:04:53.656Z,26.07
2018-10-19T07:07:21.699Z,23.10
2018-10-19T07:09:49.746Z,24.13
2018-10-19T07:12:17.859Z,26.37
2018-10-19T07:14:45.897Z,23.90
2018-10-19T07:17:14.024Z,23.43
2018-10-19T07:19:42.002Z,24.63
2018-10-19T07:22:10.052Z,26.67
2018-10-19T07:24:38.105Z,24.67
2018-10-19T07:27:06.170Z,25.77
2018-10-19T07:29:34.293Z,25.90
2018-10-19T07:32:02.338Z,28.03
2018-10-19T07:34:30.352Z,23.60
2018-10-19T07:36:58.406Z,25.53
2018-10-19T07:39:26.452Z,25.97
2018-10-19T07:41:54.533Z,28.50
2018-10-19T07:44:22.675Z,29.37
2018-10-19T07:46:50.762Z,28.27
2018-10-19T07:49:18.850Z,26.33
2018-10-19T07:51:46.878Z,27.47
2018-10-19T07:54:15.003Z,28.73
2018-10-19T07:56:42.996Z,28.13
2018-10-19T07:59:11.124Z,29.63
2018-10-19T08:01:39.161Z,28.53
2018-10-19T08:04:07.268Z,30.20
2018-10-19T08:06:35.369Z,27.83
2018-10-19T08:09:07.023Z,29.80
2018-10-19T08:11:35.201Z,28.83
2018-10-19T08:14:03.432Z,27.77
2018-10-19T08:16:31.505Z,27.73
2018-10-19T08:18:59.573Z,28.83
2018-10-19T08:21:27.619Z,29.40
2018-10-19T08:23:55.689Z,28.40
2018-10-19T08:26:23.753Z,27.63
2018-10-19T08:28:51.841Z,28.17
2018-10-19T08:31:19.923Z,28.07
2018-10-19T08:33:48.026Z,28.70
2018-10-19T08:36:16.097Z,27.87
2018-10-19T08:38:44.204Z,27.97
2018-10-19T08:41:13.027Z,27.87
2018-10-19T08:43:40.979Z,28.23
2018-10-19T08:46:09.049Z,27.70
2018-10-19T08:48:37.118Z,28.40
2018-10-19T08:51:05.304Z,27.73
2018-10-19T08:53:33.567Z,27.47
2018-10-19T08:56:01.555Z,27.20
2018-10-19T08:58:29.631Z,27.73
2018-10-19T09:00:57.724Z,29.13
2018-10-19T09:03:25.798Z,27.20
2018-10-19T09:05:53.887Z,27.50
2018-10-19T09:08:21.997Z,27.23
2018-10-19T09:10:50.106Z,27.93
2018-10-19T09:13:18.117Z,27.57
2018-10-19T09:15:46.188Z,28.00
2018-10-19T09:18:14.302Z,24.80
2018-10-19T09:20:42.333Z,25.47
2018-10-19T09:23:10.436Z,25.77
2018-10-19T09:25:39.374Z,28.30
2018-10-19T09:28:07.474Z,26.47
2018-10-19T09:30:35.538Z,26.47
2018-10-19T09:33:03.666Z,27.27
2018-10-19T09:35:31.791Z,25.43
2018-10-19T09:37:59.778Z,26.50
2018-10-19T09:40:27.898Z,26.30
2018-10-19T09:42:56.061Z,25.93
2018-10-19T09:45:24.102Z,27.53
2018-10-19T09:47:52.188Z,25.57
2018-10-19T09:50:20.284Z,25.03
2018-10-19T09:52:48.366Z,22.30
2018-10-19T09:55:16.513Z,24.00
2018-10-19T09:57:44.560Z,22.30
2018-10-19T10:00:12.656Z,22.73
2018-10-19T10:02:40.773Z,22.63
2018-10-19T10:05:08.960Z,21.70
2018-10-19T10:07:37.066Z,21.37
2018-10-19T10:10:05.591Z,23.60
2018-10-19T10:12:33.708Z,23.10
2018-10-19T10:15:02.785Z,23.50
2018-10-19T10:17:30.704Z,21.67
2018-10-19T10:19:58.805Z,21.30
2018-10-19T10:22:26.941Z,22.70
2018-10-19T10:24:55.132Z,22.50
2018-10-19T10:27:23.118Z,22.83
2018-10-19T10:29:51.235Z,19.80
2018-10-19T10:32:19.402Z,21.37
2018-10-19T10:34:47.409Z,23.37
2018-10-19T10:37:15.512Z,22.20
2018-10-19T10:39:43.914Z,21.63
2018-10-19T10:42:12.001Z,21.07
2018-10-19T10:44:40.097Z,20.97
2018-10-19T10:47:08.313Z,21.67
2018-10-19T10:49:36.396Z,20.90
2018-10-19T10:52:05.065Z,21.23
2018-10-19T10:54:33.174Z,20.13
2018-10-19T10:57:01.293Z,19.97
2018-10-19T10:59:29.391Z,19.70
2018-10-19T11:01:57.503Z,19.77
2018-10-19T11:04:25.570Z,22.40
2018-10-19T11:06:53.715Z,23.03
2018-10-19T11:09:21.842Z,21.77
2018-10-19T11:11:49.987Z,22.97
2018-10-19T11:14:18.091Z,21.70
2018-10-19T11:16:46.202Z,21.90
2018-10-19T11:19:14.418Z,20.67
2018-10-19T11:21:42.532Z,22.47
2018-10-19T11:24:10.892Z,22.20
2018-10-19T11:26:38.845Z,22.93
2018-10-19T11:29:06.901Z,21.67
2018-10-19T11:31:35.011Z,22.90
2018-10-19T11:34:03.107Z,23.03
2018-10-19T11:36:31.168Z,18.30
2018-10-19T11:38:59.438Z,19.63
2018-10-19T11:41:27.511Z,21.73
2018-10-19T11:43:55.626Z,22.40
2018-10-19T11:46:23.738Z,21.43
2018-10-19T11:48:51.831Z,21.97
2018-10-19T11:51:19.917Z,22.20
2018-10-19T11:53:48.001Z,21.43
2018-10-19T11:56:16.122Z,21.83
2018-10-19T11:58:44.261Z,20.27
2018-10-19T12:01:12.379Z,20.27
2018-10-19T12:03:40.430Z,19.87
2018-10-19T12:06:08.535Z,21.50
2018-10-19T12:08:36.655Z,17.90
2018-10-19T12:11:05.035Z,20.30
2018-10-19T12:13:32.895Z,20.87
2018-10-19T12:16:00.954Z,20.40
2018-10-19T12:18:29.021Z,20.27
2018-10-19T12:20:57.163Z,16.37
2018-10-19T12:23:25.198Z,12.07
2018-10-19T12:25:53.269Z,20.73
2018-10-19T12:28:21.355Z,19.20
2018-10-19T12:30:49.526Z,20.30
2018-10-19T12:33:17.676Z,18.73
2018-10-19T12:35:45.686Z,19.53
2018-10-19T12:38:13.759Z,16.90
2018-10-19T12:40:41.885Z,19.13
2018-10-19T12:43:09.990Z,19.70
2018-10-19T12:46:46.453Z,18.70
2018-10-19T12:49:14.910Z,19.23
2018-10-19T12:51:42.986Z,19.00
2018-10-19T12:54:11.111Z,20.20
2018-10-19T12:56:39.196Z,20.50
2018-10-19T12:59:07.332Z,21.60
2018-10-19T13:01:35.441Z,17.13
2018-10-19T13:04:03.566Z,25.23
2018-10-19T13:06:31.694Z,22.63
2018-10-19T13:08:59.856Z,24.23
2018-10-19T13:11:27.991Z,23.00
2018-10-19T13:13:56.084Z,21.93
2018-10-19T13:16:24.233Z,20.27
2018-10-19T13:18:52.307Z,21.43
2018-10-19T13:21:20.652Z,21.20
2018-10-19T13:23:48.849Z,24.10
2018-10-19T13:26:17.437Z,22.60
2018-10-19T13:28:45.534Z,27.23
2018-10-19T13:31:13.631Z,25.20
2018-10-19T13:33:41.807Z,25.00
2018-10-19T13:36:09.980Z,25.73
2018-10-19T13:38:38.061Z,27.63
2018-10-19T13:41:06.197Z,26.77
2018-10-19T13:43:34.354Z,24.97
2018-10-19T13:46:02.463Z,26.47
2018-10-19T13:48:30.814Z,26.03
2018-10-19T13:50:59.357Z,27.07
2018-10-19T13:53:28.024Z,25.30
2018-10-19T13:55:56.119Z,26.60
2018-10-19T13:58:24.294Z,24.20
2018-10-19T14:00:52.479Z,16.83
2018-10-19T14:03:20.608Z,23.30
2018-10-19T14:05:48.759Z,23.20
2018-10-19T14:08:16.756Z,19.90
2018-10-19T14:10:44.839Z,18.27
2018-10-19T14:13:12.994Z,15.90
2018-10-19T14:15:41.097Z,19.63
2018-10-19T14:18:09.162Z,25.57
2018-10-19T14:20:37.227Z,23.93
2018-10-19T14:23:05.751Z,25.30
2018-10-19T14:25:33.820Z,25.43
2018-10-19T14:28:01.885Z,26.90
2018-10-19T14:30:29.999Z,25.27
2018-10-19T14:32:58.108Z,22.87
2018-10-19T14:35:26.126Z,23.90
2018-10-19T14:37:54.390Z,25.17
2018-10-19T14:40:22.474Z,23.03
2018-10-19T14:42:50.598Z,21.67
2018-10-19T14:45:18.671Z,21.03
2018-10-19T14:47:47.844Z,23.83
2018-10-19T14:50:15.943Z,24.37
2018-10-19T14:52:44.022Z,26.63
2018-10-19T14:55:12.532Z,22.93
2018-10-19T14:57:40.591Z,25.83
2018-10-19T15:00:09.700Z,25.87
2018-10-19T15:02:37.761Z,24.60
2018-10-19T15:05:06.112Z,26.17
2018-10-19T15:07:34.198Z,27.43
2018-10-19T15:10:02.380Z,24.73
2018-10-19T15:12:30.383Z,18.90
2018-10-19T15:14:58.553Z,22.53
2018-10-19T15:17:26.637Z,25.67
2018-10-19T15:19:54.702Z,26.37
2018-10-19T15:22:22.774Z,25.37
2018-10-19T15:24:50.866Z,23.80
2018-10-19T15:27:18.926Z,24.47
2018-10-19T15:29:47.129Z,21.80
2018-10-19T15:32:15.108Z,23.30
2018-10-19T15:34:43.162Z,23.90
2018-10-19T15:37:14.202Z,21.40
2018-10-19T15:39:42.632Z,18.70
2018-10-19T15:42:10.945Z,21.73
2018-10-19T15:44:39.333Z,19.73
2018-10-19T15:47:07.479Z,20.83
2018-10-19T15:49:35.573Z,26.13
2018-10-19T15:52:03.704Z,19.80
2018-10-19T15:54:31.810Z,20.87
2018-10-19T15:57:00.249Z,22.97
2018-10-19T15:59:28.209Z,19.33
2018-10-19T16:01:56.273Z,22.67
2018-10-19T16:04:24.338Z,19.47
2018-10-19T16:06:52.470Z,21.63
2018-10-19T16:09:20.588Z,23.00
2018-10-19T16:11:49.175Z,22.77
2018-10-19T16:14:17.786Z,19.40
2018-10-19T16:16:46.001Z,20.83
2018-10-19T16:19:14.319Z,21.07
2018-10-19T16:21:42.476Z,21.60
2018-10-19T16:24:10.956Z,23.57
2018-10-19T16:26:39.224Z,20.70
2018-10-19T16:29:07.511Z,21.97
2018-10-19T16:31:37.244Z,21.03
2018-10-19T16:34:05.608Z,20.30
2018-10-19T16:36:34.208Z,22.07
2018-10-19T16:39:02.787Z,22.47
2018-10-19T16:41:32.279Z,21.50
2018-10-19T16:44:00.763Z,21.10
2018-10-19T16:46:28.876Z,21.70
2018-10-19T16:48:57.691Z,24.43
2018-10-19T16:51:26.020Z,24.50
2018-10-19T16:53:54.248Z,23.63
2018-10-19T16:56:25.273Z,25.90
2018-10-19T16:58:54.161Z,26.03
2018-10-19T17:01:22.725Z,26.70
2018-10-19T17:03:52.491Z,26.37
2018-10-19T17:06:21.058Z,25.73
2018-10-19T17:08:49.505Z,26.87
2018-10-19T17:11:17.708Z,24.30
2018-10-19T17:13:45.855Z,24.60
2018-10-19T17:16:13.965Z,25.00
2018-10-19T17:18:42.073Z,24.17
2018-10-19T17:21:10.306Z,24.30
2018-10-19T17:23:38.418Z,24.23
2018-10-19T17:26:06.523Z,22.80
2018-10-19T17:28:34.633Z,23.77
2018-10-19T17:31:02.850Z,22.43
2018-10-19T17:33:31.099Z,22.20
2018-10-19T17:35:59.374Z,23.57
2018-10-19T17:38:27.453Z,22.03
2018-10-19T17:40:55.680Z,22.60
2018-10-19T17:43:23.854Z,21.30
2018-10-19T17:45:51.980Z,24.13
2018-10-19T17:48:20.159Z,23.87
2018-10-19T17:50:48.405Z,21.80
2018-10-19T17:53:16.555Z,21.67
2018-10-19T17:55:44.624Z,21.53
2018-10-19T17:58:12.927Z,22.40
2018-10-19T18:00:41.096Z,23.50
2018-10-19T18:03:09.132Z,22.00
2018-10-19T18:05:37.237Z,22.03
2018-10-19T18:08:05.361Z,21.83
2018-10-19T18:10:33.502Z,22.53
2018-10-19T18:13:01.635Z,21.87
2018-10-19T18:15:29.822Z,23.17
2018-10-19T18:17:57.883Z,21.20
2018-10-19T18:20:26.012Z,21.30
2018-10-19T18:22:54.896Z,21.10
2018-10-19T18:25:22.907Z,20.77
2018-10-19T18:27:51.046Z,21.80
2018-10-19T18:30:19.166Z,20.93
2018-10-19T18:32:47.294Z,20.67
2018-10-19T18:35:15.462Z,20.23
2018-10-19T18:37:43.612Z,20.37
2018-10-19T18:40:11.799Z,20.07
2018-10-19T18:42:39.950Z,19.70
2018-10-19T18:45:08.073Z,20.43
2018-10-19T18:47:36.197Z,19.93
2018-10-19T18:50:04.905Z,20.23
2018-10-19T18:52:33.043Z,19.23
2018-10-19T18:55:01.228Z,20.77
2018-10-19T18:57:29.368Z,20.13
2018-10-19T18:59:57.591Z,19.13
2018-10-19T19:02:25.810Z,19.10
2018-10-19T19:04:53.927Z,19.50
2018-10-19T19:07:22.567Z,21.60
2018-10-19T19:09:50.721Z,21.13
2018-10-19T19:12:18.917Z,18.80
2018-10-19T19:14:47.030Z,18.97
2018-10-19T19:17:15.285Z,18.67
2018-10-19T19:19:43.405Z,18.97
2018-10-19T19:22:11.554Z,18.50
2018-10-19T19:24:39.722Z,16.97
2018-10-19T19:27:07.845Z,17.03
2018-10-19T19:29:36.019Z,17.63
2018-10-19T19:32:04.267Z,17.23
2018-10-19T19:34:32.338Z,17.03
2018-10-19T19:37:00.506Z,17.50
2018-10-19T19:39:28.914Z,17.80
2018-10-19T19:41:57.009Z,18.33
2018-10-19T19:44:25.348Z,18.07
2018-10-19T19:46:53.617Z,17.17
2018-10-19T19:49:22.892Z,20.13
2018-10-19T19:51:50.935Z,17.97
2018-10-19T19:54:19.021Z,16.67
2018-10-19T19:56:47.167Z,17.70
2018-10-19T19:59:15.429Z,17.67
2018-10-19T20:01:43.483Z,17.57
2018-10-19T20:04:11.677Z,16.23
2018-10-19T20:06:39.808Z,16.23
2018-10-19T20:09:07.966Z,17.00
2018-10-19T20:11:36.088Z,17.23
2018-10-19T20:14:04.570Z,16.00
2018-10-19T20:16:32.658Z,15.90
2018-10-19T20:19:00.828Z,17.60
2018-10-19T20:21:28.928Z,15.83
2018-10-19T20:23:57.065Z,17.43
2018-10-19T20:26:25.324Z,16.80
2018-10-19T20:28:53.479Z,16.87
2018-10-19T20:31:21.532Z,15.87
2018-10-19T20:33:49.670Z,15.87
2018-10-19T20:36:17.804Z,15.13
2018-10-19T20:38:45.927Z,16.07
2018-10-19T20:41:14.045Z,16.53
2018-10-19T20:43:42.158Z,17.07
2018-10-19T20:46:10.307Z,16.97
2018-10-19T20:48:39.171Z,16.70
2018-10-19T20:51:07.443Z,17.00
2018-10-19T20:53:35.644Z,16.17
2018-10-19T20:56:03.866Z,16.53
2018-10-19T20:58:31.957Z,15.50
2018-10-19T21:01:00.054Z,16.13
2018-10-19T21:03:28.199Z,15.90
2018-10-19T21:05:56.357Z,15.33
2018-10-19T21:08:24.493Z,15.20
2018-10-19T21:10:52.610Z,14.57
2018-10-19T21:13:20.791Z,14.10
2018-10-19T21:15:48.927Z,13.80
2018-10-19T21:18:17.021Z,14.30
2018-10-19T21:20:45.611Z,13.60
2018-10-19T21:23:13.851Z,13.50
2018-10-19T21:25:41.823Z,14.70
2018-10-19T21:28:10.179Z,12.70
2018-10-19T21:30:38.317Z,13.80
2018-10-19T21:33:06.372Z,13.87
2018-10-19T21:35:34.597Z,13.90
2018-10-19T21:38:02.762Z,12.57
2018-10-19T21:40:31.696Z,13.27
2018-10-19T21:42:59.845Z,12.90
2018-10-19T21:45:28.396Z,12.77
2018-10-19T21:47:56.487Z,12.97
2018-10-19T21:50:24.558Z,13.20
2018-10-19T21:52:52.643Z,12.77
2018-10-19T21:55:20.798Z,13.47
2018-10-19T21:57:49.237Z,13.93
2018-10-19T22:00:17.392Z,13.37
2018-10-19T22:02:45.453Z,13.50
2018-10-19T22:05:13.645Z,14.13
2018-10-19T22:07:41.797Z,12.83
2018-10-19T22:10:09.831Z,12.77
2018-10-19T22:12:37.890Z,12.83
2018-10-19T22:15:06.561Z,13.63
2018-10-19T22:17:34.632Z,13.77
2018-10-19T22:20:02.776Z,13.50
2018-10-19T22:22:30.854Z,14.20
2018-10-19T22:24:58.951Z,13.43
2018-10-19T22:27:27.007Z,13.50
2018-10-19T22:29:55.073Z,15.10
2018-10-19T22:32:23.146Z,13.43
2018-10-19T22:34:51.226Z,13.10
2018-10-19T22:37:19.314Z,12.50
2018-10-19T22:39:47.378Z,13.83
2018-10-19T22:42:15.451Z,12.07
2018-10-19T22:44:43.537Z,12.40
2018-10-19T22:47:11.638Z,12.67
2018-10-19T22:49:39.673Z,12.60
2018-10-19T22:52:07.734Z,12.90
2018-10-19T22:54:35.805Z,13.40
2018-10-19T22:57:03.881Z,14.10
2018-10-19T22:59:31.945Z,13.57
2018-10-19T23:02:00.011Z,13.47
2018-10-19T23:04:28.077Z,13.07
2018-10-19T23:06:56.172Z,15.93
2018-10-19T23:09:24.237Z,15.80
2018-10-19T23:11:52.262Z,13.93
2018-10-19T23:14:20.292Z,14.20
2018-10-19T23:16:48.426Z,14.50
2018-10-19T23:19:16.537Z,13.87
2018-10-19T23:21:44.590Z,14.50
2018-10-19T23:24:12.654Z,12.90
2018-10-19T23:26:40.705Z,13.60
2018-10-19T23:29:08.811Z,13.63
2018-10-19T23:31:36.874Z,13.47
2018-10-19T23:34:04.926Z,13.00
2018-10-19T23:36:33.012Z,13.67
2018-10-19T23:39:01.076Z,13.23
2018-10-19T23:41:29.152Z,14.63
2018-10-19T23:43:57.221Z,13.60
2018-10-19T23:46:25.286Z,13.43
2018-10-19T23:48:53.370Z,13.23
2018-10-19T23:51:21.441Z,14.03
2018-10-19T23:53:49.465Z,14.77
2018-10-19T23:56:17.509Z,14.23
2018-10-19T23:58:45.534Z,13.30
